createdAt,value
2022-08-08T00:00:50.607Z,99.99
2022-08-08T00:00:55.093Z,99.99
2022-08-08T00:02:03.296Z,99.99
2022-08-08T00:02:33.582Z,99.99
2022-08-08T00:03:33.135Z,99.99
2022-08-08T00:04:33.447Z,99.99
2022-08-08T00:05:44.064Z,99.99
2022-08-08T00:06:34.727Z,99.99
2022-08-08T00:07:32.850Z,99.99
2022-08-08T00:08:33.131Z,99.99
2022-08-08T00:09:33.154Z,99.99
2022-08-08T00:10:32.992Z,99.99
2022-08-08T00:11:46.098Z,99.99
2022-08-08T00:12:32.572Z,99.99
2022-08-08T00:14:16.429Z,99.99
2022-08-08T00:14:54.690Z,99.99
2022-08-08T00:15:57.301Z,99.99
2022-08-08T00:16:32.952Z,99.99
2022-08-08T00:17:48.014Z,99.99
2022-08-08T00:18:32.889Z,99.99
2022-08-08T00:19:32.980Z,99.99
2022-08-08T00:20:32.453Z,99.99
2022-08-08T00:21:39.725Z,99.99
2022-08-08T00:22:32.169Z,99.99
2022-08-08T00:23:43.000Z,99.99
2022-08-08T00:24:31.925Z,99.99
2022-08-08T00:26:32.087Z,99.99
2022-08-08T00:27:32.823Z,99.99
2022-08-08T00:28:35.386Z,99.99
2022-08-08T00:29:44.968Z,99.99
2022-08-08T00:30:31.486Z,99.99
2022-08-08T00:32:20.426Z,99.99
2022-08-08T00:32:40.377Z,99.99
2022-08-08T00:34:35.682Z,99.99
2022-08-08T00:35:37.443Z,99.99
2022-08-08T00:36:35.536Z,99.99
2022-08-08T00:37:47.484Z,99.99
2022-08-08T00:38:44.508Z,99.99
2022-08-08T00:41:07.708Z,99.99
2022-08-08T00:41:12.289Z,99.99
2022-08-08T00:41:54.425Z,99.99
2022-08-08T00:42:36.897Z,99.99
2022-08-08T00:43:41.073Z,99.99
2022-08-08T00:44:35.062Z,99.99
2022-08-08T00:45:34.987Z,99.99
2022-08-08T00:46:56.903Z,99.99
2022-08-08T00:47:36.829Z,99.99
2022-08-08T00:48:34.807Z,99.99
2022-08-08T00:49:34.746Z,99.99
2022-08-08T00:50:34.682Z,99.99
2022-08-08T00:51:38.221Z,99.99
2022-08-08T00:52:40.262Z,99.99
2022-08-08T00:53:43.700Z,99.99
2022-08-08T00:54:34.432Z,99.99
2022-08-08T00:55:36.039Z,99.99
2022-08-08T00:56:34.312Z,99.99
2022-08-08T00:57:36.192Z,99.99
2022-08-08T00:58:34.642Z,99.99
2022-08-08T00:59:43.779Z,99.99
2022-08-08T01:00:37.771Z,99.99
2022-08-08T01:01:38.146Z,99.99
2022-08-08T01:03:57.292Z,99.99
2022-08-08T01:04:00.774Z,99.99
2022-08-08T01:04:33.821Z,99.99
2022-08-08T01:05:58.921Z,99.99
2022-08-08T01:06:33.700Z,99.99
2022-08-08T01:07:34.602Z,99.99
2022-08-08T01:08:33.576Z,99.99
2022-08-08T01:09:35.693Z,99.99
2022-08-08T01:10:33.457Z,99.99
2022-08-08T01:11:33.395Z,99.99
2022-08-08T01:12:33.513Z,99.99
2022-08-08T01:13:43.448Z,99.99
2022-08-08T01:14:54.051Z,99.99
2022-08-08T01:15:43.556Z,99.99
2022-08-08T01:16:33.116Z,99.99
2022-08-08T01:17:52.022Z,99.99
2022-08-08T01:18:52.513Z,99.99
2022-08-08T01:19:51.968Z,99.99
2022-08-08T01:20:32.844Z,99.99
2022-08-08T01:21:36.933Z,99.99
2022-08-08T01:22:32.722Z,99.99
2022-08-08T01:24:06.051Z,99.99
2022-08-08T01:24:32.628Z,99.99
2022-08-08T01:25:40.708Z,99.99
2022-08-08T01:26:32.472Z,99.99
2022-08-08T01:27:33.122Z,99.99
2022-08-08T01:28:32.362Z,99.99
2022-08-08T01:29:35.127Z,99.99
2022-08-08T01:30:32.226Z,99.99
2022-08-08T01:32:12.956Z,99.99
2022-08-08T01:32:32.274Z,99.99
2022-08-08T01:33:42.863Z,99.99
2022-08-08T01:34:31.985Z,99.99
2022-08-08T01:35:31.923Z,99.99
2022-08-08T01:36:31.860Z,99.99
2022-08-08T01:37:57.120Z,99.99
2022-08-08T01:38:31.908Z,99.99
2022-08-08T01:39:35.142Z,99.99
2022-08-08T01:40:31.615Z,99.99
2022-08-08T01:41:34.372Z,99.99
2022-08-08T01:42:36.647Z,99.99
2022-08-08T01:43:34.647Z,99.99
2022-08-08T01:44:31.366Z,99.99
2022-08-08T01:45:31.308Z,99.99
2022-08-08T01:46:31.246Z,99.99
2022-08-08T01:48:16.812Z,99.99
2022-08-08T01:48:31.771Z,99.99
2022-08-08T01:49:37.449Z,99.99
2022-08-08T01:50:36.043Z,99.99
2022-08-08T01:52:33.485Z,99.99
2022-08-08T01:53:14.978Z,99.99
2022-08-08T01:55:17.536Z,99.99
2022-08-08T01:55:26.312Z,99.99
2022-08-08T01:56:29.079Z,99.99
2022-08-08T01:56:34.534Z,99.99
2022-08-08T01:58:11.034Z,99.99
2022-08-08T01:58:35.922Z,99.99
2022-08-08T01:59:37.884Z,99.99
2022-08-08T02:00:30.386Z,99.99
2022-08-08T02:01:54.785Z,99.99
2022-08-08T02:02:34.381Z,99.99
2022-08-08T02:03:55.537Z,99.99
2022-08-08T02:04:30.149Z,99.99
2022-08-08T02:05:33.917Z,99.99
2022-08-08T02:06:33.146Z,99.99
2022-08-08T02:07:41.692Z,99.99
2022-08-08T02:08:33.762Z,99.99
2022-08-08T02:10:02.823Z,99.99
2022-08-08T02:10:44.491Z,99.99
2022-08-08T02:11:52.986Z,99.99
2022-08-08T02:12:30.027Z,99.99
2022-08-08T02:13:53.055Z,99.99
2022-08-08T02:14:29.524Z,99.99
2022-08-08T02:15:29.465Z,99.99
2022-08-08T02:16:29.408Z,99.99
2022-08-08T02:17:36.737Z,99.99
2022-08-08T02:18:29.282Z,99.99
2022-08-08T02:20:07.611Z,99.99
2022-08-08T02:21:00.877Z,99.99
2022-08-08T02:21:29.098Z,99.99
2022-08-08T02:22:31.294Z,99.99
2022-08-08T02:23:32.181Z,99.99
2022-08-08T02:24:28.946Z,99.99
2022-08-08T02:25:33.109Z,99.99
2022-08-08T02:26:28.789Z,99.99
2022-08-08T02:27:28.735Z,99.99
2022-08-08T02:28:35.404Z,99.99
2022-08-08T02:29:41.548Z,99.99
2022-08-08T02:30:28.550Z,99.99
2022-08-08T02:31:58.390Z,99.99
2022-08-08T02:32:28.429Z,99.99
2022-08-08T02:34:00.359Z,99.99
2022-08-08T02:34:33.212Z,99.99
2022-08-08T02:35:28.453Z,99.99
2022-08-08T02:36:28.540Z,99.99
2022-08-08T02:37:53.281Z,99.99
2022-08-08T02:38:30.270Z,99.99
2022-08-08T02:39:41.997Z,99.99
2022-08-08T02:40:28.142Z,99.99
2022-08-08T02:41:59.157Z,99.99
2022-08-08T02:42:35.945Z,99.99
2022-08-08T02:44:42.357Z,99.99
2022-08-08T02:44:42.553Z,99.99
2022-08-08T02:45:27.619Z,99.99
2022-08-08T02:46:27.576Z,99.99
2022-08-08T02:47:27.496Z,99.99
2022-08-08T02:48:27.571Z,99.99
2022-08-08T02:49:51.233Z,99.99
2022-08-08T02:50:27.314Z,99.99
2022-08-08T02:51:38.309Z,99.99
2022-08-08T02:52:35.051Z,99.99
2022-08-08T02:53:27.135Z,99.99
2022-08-08T02:54:27.918Z,99.99
2022-08-08T02:55:29.494Z,99.99
2022-08-08T02:56:26.947Z,99.99
2022-08-08T02:57:26.893Z,99.99
2022-08-08T02:58:26.912Z,99.99
2022-08-08T02:59:37.136Z,99.99
2022-08-08T03:00:31.215Z,99.99
2022-08-08T03:01:26.693Z,99.99
2022-08-08T03:02:30.283Z,99.99
2022-08-08T03:05:01.043Z,99.99
2022-08-08T03:05:03.523Z,99.99
2022-08-08T03:05:26.399Z,99.99
2022-08-08T03:06:34.937Z,99.99
2022-08-08T03:07:26.298Z,99.99
2022-08-08T03:08:26.200Z,99.99
2022-08-08T03:09:28.561Z,99.99
2022-08-08T03:10:32.438Z,99.99
2022-08-08T03:11:29.378Z,99.99
2022-08-08T03:12:36.541Z,99.99
2022-08-08T03:13:34.144Z,99.99
2022-08-08T03:15:58.851Z,99.99
2022-08-08T03:16:00.049Z,99.99
2022-08-08T03:16:35.217Z,99.99
2022-08-08T03:17:39.774Z,99.99
2022-08-08T03:18:30.716Z,99.99
2022-08-08T03:19:25.519Z,99.99
2022-08-08T03:20:25.465Z,99.99
2022-08-08T03:21:40.921Z,99.99
2022-08-08T03:22:38.692Z,99.99
2022-08-08T03:23:30.342Z,99.99
2022-08-08T03:24:25.211Z,99.99
2022-08-08T03:25:34.106Z,99.99
2022-08-08T03:26:25.091Z,99.99
2022-08-08T03:27:27.224Z,99.99
2022-08-08T03:28:24.988Z,99.99
2022-08-08T03:29:51.291Z,99.99
2022-08-08T03:30:24.886Z,99.99
2022-08-08T03:31:25.739Z,99.99
2022-08-08T03:32:29.010Z,99.99
2022-08-08T03:33:56.196Z,99.99
2022-08-08T03:34:24.598Z,99.99
2022-08-08T03:35:24.536Z,99.99
2022-08-08T03:36:27.495Z,99.99
2022-08-08T03:38:54.531Z,99.99
2022-08-08T03:38:55.894Z,99.99
2022-08-08T03:39:24.383Z,99.99
2022-08-08T03:40:29.758Z,99.99
2022-08-08T03:42:04.172Z,99.99
2022-08-08T03:42:38.786Z,99.99
2022-08-08T03:43:24.040Z,99.99
2022-08-08T03:44:25.511Z,99.99
2022-08-08T03:46:04.963Z,99.99
2022-08-08T03:46:25.502Z,99.99
2022-08-08T03:47:23.809Z,99.99
2022-08-08T03:49:09.098Z,99.99
2022-08-08T03:49:57.497Z,99.99
2022-08-08T03:50:24.810Z,99.99
2022-08-08T03:51:40.539Z,99.99
2022-08-08T03:52:23.503Z,99.99
2022-08-08T03:53:24.238Z,99.99
2022-08-08T03:54:40.548Z,99.99
2022-08-08T03:55:57.428Z,99.99
2022-08-08T03:56:31.924Z,99.99
2022-08-08T03:58:33.830Z,99.99
2022-08-08T03:58:34.251Z,99.99
2022-08-08T03:59:23.386Z,99.99
2022-08-08T04:00:26.171Z,99.99
2022-08-08T04:01:26.117Z,99.99
2022-08-08T04:02:51.931Z,99.99
2022-08-08T04:03:57.035Z,99.99
2022-08-08T04:04:23.150Z,99.99
2022-08-08T04:05:28.029Z,99.99
2022-08-08T04:06:22.635Z,99.99
2022-08-08T04:07:22.559Z,99.99
2022-08-08T04:08:32.917Z,99.99
2022-08-08T04:09:22.444Z,99.99
2022-08-08T04:10:22.382Z,99.99
2022-08-08T04:11:23.696Z,99.99
2022-08-08T04:12:22.723Z,99.99
2022-08-08T04:13:22.209Z,99.99
2022-08-08T04:14:34.108Z,99.99
2022-08-08T04:15:22.359Z,99.99
2022-08-08T04:16:22.001Z,99.99
2022-08-08T04:17:46.707Z,99.99
2022-08-08T04:18:21.871Z,99.99
2022-08-08T04:19:23.613Z,99.99
2022-08-08T04:20:21.745Z,99.99
2022-08-08T04:21:23.377Z,99.99
2022-08-08T04:22:24.029Z,99.99
2022-08-08T04:23:21.579Z,99.99
2022-08-08T04:24:29.430Z,99.99
2022-08-08T04:25:21.439Z,99.99
2022-08-08T04:26:21.383Z,99.99
2022-08-08T04:28:02.451Z,99.99
2022-08-08T04:28:36.192Z,99.99
2022-08-08T04:29:21.195Z,99.99
2022-08-08T04:30:21.131Z,99.99
2022-08-08T04:31:56.954Z,99.99
2022-08-08T04:32:30.922Z,99.99
2022-08-08T04:33:20.950Z,99.99
2022-08-08T04:34:20.890Z,99.99
2022-08-08T04:35:22.859Z,99.99
2022-08-08T04:36:20.796Z,99.99
2022-08-08T04:37:20.710Z,99.99
2022-08-08T04:38:21.951Z,99.99
2022-08-08T04:40:03.905Z,99.99
2022-08-08T04:40:24.171Z,99.99
2022-08-08T04:41:21.579Z,99.99
2022-08-08T04:42:20.390Z,99.99
2022-08-08T04:43:20.327Z,99.99
2022-08-08T04:44:20.276Z,99.99
2022-08-08T04:45:20.218Z,99.99
2022-08-08T04:46:20.139Z,99.99
2022-08-08T04:47:20.084Z,99.99
2022-08-08T04:48:21.717Z,99.99
2022-08-08T04:49:19.958Z,99.99
2022-08-08T04:50:24.815Z,99.99
2022-08-08T04:51:27.909Z,99.99
2022-08-08T04:52:19.773Z,99.99
2022-08-08T04:54:27.047Z,99.99
2022-08-08T04:54:38.364Z,99.99
2022-08-08T04:55:19.589Z,99.99
2022-08-08T04:56:19.562Z,99.99
2022-08-08T04:57:19.469Z,99.99
2022-08-08T04:58:19.410Z,99.99
2022-08-08T04:59:19.354Z,99.99
2022-08-08T05:00:19.462Z,99.99
2022-08-08T05:01:19.257Z,99.99
2022-08-08T05:02:20.195Z,99.99
2022-08-08T05:04:09.238Z,99.99
2022-08-08T05:04:19.045Z,99.99
2022-08-08T05:05:20.457Z,99.99
2022-08-08T05:06:28.080Z,99.99
2022-08-08T05:07:18.855Z,99.99
2022-08-08T05:08:18.789Z,99.99
2022-08-08T05:09:18.737Z,99.99
2022-08-08T05:10:18.670Z,99.99
2022-08-08T05:11:23.135Z,99.99
2022-08-08T05:12:20.311Z,99.99
2022-08-08T05:13:18.473Z,99.99
2022-08-08T05:14:20.743Z,99.99
2022-08-08T05:15:18.361Z,99.99
2022-08-08T05:16:55.311Z,99.99
2022-08-08T05:17:18.293Z,99.99
2022-08-08T05:18:18.176Z,99.99
2022-08-08T05:20:12.407Z,99.99
2022-08-08T05:20:18.053Z,99.99
2022-08-08T05:21:19.211Z,99.99
2022-08-08T05:22:18.059Z,99.99
2022-08-08T05:23:17.874Z,99.99
2022-08-08T05:24:17.838Z,99.99
2022-08-08T05:25:17.740Z,99.99
2022-08-08T05:26:19.718Z,99.99
2022-08-08T05:27:17.621Z,99.99
2022-08-08T05:28:56.680Z,99.99
2022-08-08T05:29:17.491Z,99.99
2022-08-08T05:30:17.431Z,99.99
2022-08-08T05:32:02.553Z,99.99
2022-08-08T05:32:17.337Z,99.99
2022-08-08T05:33:17.847Z,99.99
2022-08-08T05:34:17.202Z,99.99
2022-08-08T05:35:17.123Z,99.99
2022-08-08T05:36:25.049Z,99.99
2022-08-08T05:37:19.078Z,99.99
2022-08-08T05:38:30.234Z,99.99
2022-08-08T05:39:16.926Z,99.99
2022-08-08T05:40:16.851Z,99.99
2022-08-08T05:41:16.757Z,99.99
2022-08-08T05:42:19.416Z,96.99
2022-08-08T05:44:02.097Z,92.75
2022-08-08T05:44:16.592Z,91.01
2022-08-08T05:45:25.293Z,88.35
2022-08-08T05:46:16.469Z,86.65
2022-08-08T05:47:21.031Z,86.03
2022-08-08T05:48:16.358Z,87.05
2022-08-08T05:49:16.285Z,86.86
2022-08-08T05:50:16.430Z,87.05
2022-08-08T05:51:16.305Z,87.58
2022-08-08T05:52:16.103Z,85.63
2022-08-08T05:53:54.419Z,84.08
2022-08-08T05:54:26.956Z,81.79
2022-08-08T05:55:15.931Z,80.09
2022-08-08T05:56:15.872Z,79.66
2022-08-08T05:57:15.815Z,79.22
2022-08-08T05:58:18.021Z,79.72
2022-08-08T05:59:15.687Z,81.57
2022-08-08T06:00:22.726Z,83.33
2022-08-08T06:01:52.482Z,83.67
2022-08-08T06:02:15.519Z,83.91
2022-08-08T06:03:23.647Z,83.99
2022-08-08T06:04:23.034Z,82.62
2022-08-08T06:05:34.169Z,80.87
2022-08-08T06:06:18.128Z,77.94
2022-08-08T06:07:15.222Z,77.49
2022-08-08T06:08:33.200Z,75.72
2022-08-08T06:09:58.482Z,73.72
2022-08-08T06:10:24.694Z,72.75
2022-08-08T06:11:16.611Z,73.46
2022-08-08T06:12:18.549Z,71.81
2022-08-08T06:13:16.599Z,71.97
2022-08-08T06:14:17.922Z,72.01
2022-08-08T06:15:16.113Z,71.13
2022-08-08T06:16:14.738Z,71.45
2022-08-08T06:17:19.638Z,72.87
2022-08-08T06:18:20.689Z,73.90
2022-08-08T06:19:16.486Z,73.71
2022-08-08T06:20:16.292Z,73.88
2022-08-08T06:21:32.903Z,73.43
2022-08-08T06:23:14.282Z,70.97
2022-08-08T06:24:27.010Z,71.01
2022-08-08T06:25:14.177Z,70.75
2022-08-08T06:26:43.941Z,69.26
2022-08-08T06:27:14.067Z,68.87
2022-08-08T06:28:14.009Z,70.50
2022-08-08T06:29:49.088Z,68.48
2022-08-08T06:30:26.389Z,67.32
2022-08-08T06:31:15.625Z,66.76
2022-08-08T06:32:15.326Z,66.11
2022-08-08T06:33:15.218Z,65.23
2022-08-08T06:34:26.965Z,64.52
2022-08-08T06:36:00.577Z,65.46
2022-08-08T06:36:13.560Z,65.78
2022-08-08T06:37:25.230Z,66.31
2022-08-08T06:38:14.646Z,64.29
2022-08-08T06:39:13.409Z,65.07
2022-08-08T06:40:16.617Z,63.60
2022-08-08T06:41:15.303Z,63.83
2022-08-08T06:42:13.209Z,63.48
2022-08-08T06:43:13.157Z,63.21
2022-08-08T06:44:18.518Z,64.19
2022-08-08T06:45:13.078Z,63.34
2022-08-08T06:46:13.032Z,63.96
2022-08-08T06:47:12.932Z,63.31
2022-08-08T06:48:12.906Z,63.15
2022-08-08T06:49:12.817Z,61.61
2022-08-08T06:50:17.628Z,60.83
2022-08-08T06:51:12.705Z,60.05
2022-08-08T06:52:12.649Z,60.73
2022-08-08T06:53:17.110Z,60.53
2022-08-08T06:54:12.563Z,60.08
2022-08-08T06:55:12.483Z,59.91
2022-08-08T06:56:16.398Z,58.96
2022-08-08T06:57:12.375Z,59.45
2022-08-08T06:58:12.333Z,59.52
2022-08-08T06:59:12.617Z,59.71
2022-08-08T07:00:13.000Z,60.08
2022-08-08T07:02:16.762Z,59.92
2022-08-08T07:02:26.701Z,60.83
2022-08-08T07:03:19.451Z,60.96
2022-08-08T07:04:38.646Z,60.21
2022-08-08T07:05:20.633Z,58.96
2022-08-08T07:06:11.894Z,57.81
2022-08-08T07:07:12.257Z,57.74
2022-08-08T07:08:11.764Z,57.74
2022-08-08T07:09:15.365Z,57.18
2022-08-08T07:10:12.558Z,56.92
2022-08-08T07:11:22.150Z,57.11
2022-08-08T07:12:12.469Z,56.40
2022-08-08T07:13:11.493Z,56.69
2022-08-08T07:14:11.457Z,57.64
2022-08-08T07:15:23.044Z,57.93
2022-08-08T07:16:12.145Z,58.72
2022-08-08T07:17:14.376Z,58.36
2022-08-08T07:18:36.161Z,58.26
2022-08-08T07:19:11.163Z,57.77
2022-08-08T07:20:11.482Z,57.21
2022-08-08T07:21:18.891Z,56.92
2022-08-08T07:22:12.145Z,56.32
2022-08-08T07:23:10.953Z,55.54
2022-08-08T07:24:10.897Z,55.44
2022-08-08T07:25:10.848Z,55.39
2022-08-08T07:26:10.846Z,56.40
2022-08-08T07:27:11.156Z,57.84
2022-08-08T07:28:18.628Z,57.74
2022-08-08T07:29:20.192Z,57.25
2022-08-08T07:30:14.854Z,56.57
2022-08-08T07:31:10.514Z,57.15
2022-08-08T07:32:10.498Z,57.06
2022-08-08T07:33:11.667Z,56.88
2022-08-08T07:34:10.915Z,57.11
2022-08-08T07:35:10.937Z,56.03
2022-08-08T07:36:10.305Z,55.22
2022-08-08T07:37:11.648Z,55.98
2022-08-08T07:38:20.492Z,56.57
2022-08-08T07:39:13.212Z,55.95
2022-08-08T07:40:12.313Z,56.86
2022-08-08T07:41:16.716Z,56.59
2022-08-08T07:42:12.611Z,57.60
2022-08-08T07:43:10.153Z,56.13
2022-08-08T07:44:33.399Z,55.83
2022-08-08T07:45:11.251Z,55.54
2022-08-08T07:46:23.466Z,55.81
2022-08-08T07:47:10.588Z,55.51
2022-08-08T07:48:09.651Z,55.02
2022-08-08T07:49:09.691Z,55.44
2022-08-08T07:50:09.842Z,54.98
2022-08-08T07:51:23.692Z,54.52
2022-08-08T07:52:13.186Z,54.02
2022-08-08T07:53:09.494Z,54.02
2022-08-08T07:54:10.021Z,54.52
2022-08-08T07:55:09.590Z,54.12
2022-08-08T07:56:09.576Z,54.29
2022-08-08T07:57:10.446Z,54.00
2022-08-08T07:58:16.466Z,54.58
2022-08-08T08:00:15.941Z,55.89
2022-08-08T08:01:13.182Z,54.57
2022-08-08T08:02:35.728Z,53.85
2022-08-08T08:03:20.560Z,53.92
2022-08-08T08:04:13.640Z,53.14
2022-08-08T08:05:15.186Z,53.28
2022-08-08T08:06:14.249Z,54.66
2022-08-08T08:07:15.845Z,55.76
2022-08-08T08:08:13.293Z,54.83
2022-08-08T08:09:12.653Z,53.31
2022-08-08T08:10:12.965Z,53.31
2022-08-08T08:11:16.190Z,54.02
2022-08-08T08:12:26.522Z,54.44
2022-08-08T08:13:17.878Z,54.14
2022-08-08T08:14:12.526Z,53.09
2022-08-08T08:15:15.713Z,53.02
2022-08-08T08:16:12.625Z,54.12
2022-08-08T08:17:12.218Z,52.82
2022-08-08T08:18:14.353Z,53.48
2022-08-08T08:19:12.768Z,53.67
2022-08-08T08:20:12.135Z,54.19
2022-08-08T08:21:14.539Z,53.31
2022-08-08T08:22:12.393Z,54.00
2022-08-08T08:23:11.956Z,55.10
2022-08-08T08:24:11.892Z,53.95
2022-08-08T08:25:11.856Z,53.85
2022-08-08T08:26:11.758Z,53.66
2022-08-08T08:27:11.749Z,52.18
2022-08-08T08:28:11.640Z,53.04
2022-08-08T08:29:13.820Z,53.41
2022-08-08T08:30:11.563Z,53.44
2022-08-08T08:31:11.579Z,52.55
2022-08-08T08:32:11.471Z,54.27
2022-08-08T08:33:11.884Z,53.31
2022-08-08T08:34:11.364Z,51.27
2022-08-08T08:35:11.480Z,53.19
2022-08-08T08:36:19.306Z,52.62
2022-08-08T08:37:11.526Z,51.35
2022-08-08T08:38:17.285Z,50.78
2022-08-08T08:39:17.444Z,50.88
2022-08-08T08:40:13.046Z,52.31
2022-08-08T08:41:17.233Z,51.81
2022-08-08T08:42:11.285Z,49.26
2022-08-08T08:43:16.902Z,50.12
2022-08-08T08:44:13.819Z,49.70
2022-08-08T08:45:22.929Z,49.82
2022-08-08T08:47:10.667Z,53.39
2022-08-08T08:48:10.980Z,50.88
2022-08-08T08:49:10.635Z,50.98
2022-08-08T08:50:31.686Z,52.11
2022-08-08T08:51:10.524Z,50.66
2022-08-08T08:52:10.467Z,52.68
2022-08-08T08:53:54.722Z,51.59
2022-08-08T08:54:10.450Z,52.63
2022-08-08T08:55:10.373Z,50.66
2022-08-08T08:56:10.209Z,47.73
2022-08-08T08:57:15.518Z,49.52
2022-08-08T08:58:10.802Z,51.23
2022-08-08T08:59:15.392Z,49.48
2022-08-08T09:00:17.202Z,50.02
2022-08-08T09:01:13.595Z,48.14
2022-08-08T09:02:09.961Z,48.09
2022-08-08T09:03:09.944Z,49.08
2022-08-08T09:04:10.134Z,46.31
2022-08-08T09:05:13.953Z,47.00
2022-08-08T09:06:26.813Z,46.84
2022-08-08T09:07:12.710Z,46.45
2022-08-08T09:08:13.137Z,47.78
2022-08-08T09:09:25.958Z,47.50
2022-08-08T09:10:16.928Z,47.48
2022-08-08T09:11:09.480Z,48.39
2022-08-08T09:12:09.633Z,47.60
2022-08-08T09:13:09.366Z,45.88
2022-08-08T09:14:09.552Z,46.11
2022-08-08T09:15:09.870Z,46.24
2022-08-08T09:16:09.286Z,48.38
2022-08-08T09:17:14.217Z,47.69
2022-08-08T09:18:09.059Z,49.46
2022-08-08T09:19:09.031Z,49.99
2022-08-08T09:21:56.002Z,51.00
2022-08-08T09:21:59.247Z,50.76
2022-08-08T09:22:08.912Z,52.23
2022-08-08T09:23:10.523Z,52.08
2022-08-08T09:24:09.141Z,51.17
2022-08-08T09:25:09.733Z,49.90
2022-08-08T09:26:08.737Z,49.73
2022-08-08T09:27:14.932Z,47.79
2022-08-08T09:28:09.961Z,49.85
2022-08-08T09:29:10.928Z,54.10
2022-08-08T09:30:11.330Z,54.34
2022-08-08T09:31:12.290Z,54.87
2022-08-08T09:32:11.971Z,55.46
2022-08-08T09:33:53.963Z,55.09
2022-08-08T09:34:31.285Z,53.95
2022-08-08T09:35:08.585Z,54.17
2022-08-08T09:36:08.287Z,53.19
2022-08-08T09:37:57.430Z,53.25
2022-08-08T09:38:09.432Z,52.10
2022-08-08T09:39:10.316Z,51.22
2022-08-08T09:40:10.720Z,51.68
2022-08-08T09:41:08.012Z,52.76
2022-08-08T09:42:20.857Z,53.91
2022-08-08T09:43:16.545Z,52.20
2022-08-08T09:44:13.139Z,51.79
2022-08-08T09:45:15.490Z,52.55
2022-08-08T09:46:10.974Z,47.77
2022-08-08T09:47:23.306Z,49.92
2022-08-08T09:48:16.044Z,49.68
2022-08-08T09:49:40.956Z,51.03
2022-08-08T09:50:11.849Z,51.25
2022-08-08T09:51:07.559Z,51.09
2022-08-08T09:52:11.282Z,53.78
2022-08-08T09:53:23.853Z,54.05
2022-08-08T09:54:11.934Z,51.93
2022-08-08T09:55:07.454Z,51.12
2022-08-08T09:56:11.628Z,51.83
2022-08-08T09:57:17.034Z,52.73
2022-08-08T09:58:07.626Z,51.03
2022-08-08T09:59:25.950Z,48.92
2022-08-08T10:00:32.938Z,50.81
2022-08-08T10:01:15.426Z,50.88
2022-08-08T10:02:12.604Z,52.20
2022-08-08T10:03:06.838Z,52.13
2022-08-08T10:04:06.827Z,50.71
2022-08-08T10:05:07.029Z,50.95
2022-08-08T10:06:06.739Z,50.49
2022-08-08T10:07:07.456Z,49.68
2022-08-08T10:08:09.796Z,49.87
2022-08-08T10:09:08.338Z,50.78
2022-08-08T10:10:09.517Z,49.51
2022-08-08T10:11:12.195Z,49.41
2022-08-08T10:12:25.949Z,49.75
2022-08-08T10:13:14.845Z,47.69
2022-08-08T10:14:06.418Z,48.55
2022-08-08T10:15:18.019Z,48.96
2022-08-08T10:16:06.185Z,49.41
2022-08-08T10:18:07.458Z,47.71
2022-08-08T10:18:12.029Z,47.22
2022-08-08T10:19:06.016Z,46.55
2022-08-08T10:20:06.707Z,47.16
2022-08-08T10:21:22.823Z,46.37
2022-08-08T10:22:06.008Z,46.35
2022-08-08T10:23:06.246Z,47.26
2022-08-08T10:24:12.273Z,46.35
2022-08-08T10:25:06.060Z,46.33
2022-08-08T10:26:05.745Z,46.95
2022-08-08T10:27:06.023Z,47.32
2022-08-08T10:28:05.948Z,48.35
2022-08-08T10:29:06.282Z,46.78
2022-08-08T10:30:05.638Z,47.56
2022-08-08T10:31:05.560Z,46.93
2022-08-08T10:32:06.602Z,47.34
2022-08-08T10:33:05.592Z,47.61
2022-08-08T10:34:19.494Z,47.91
2022-08-08T10:35:11.721Z,48.15
2022-08-08T10:36:12.531Z,48.35
2022-08-08T10:37:05.448Z,47.91
2022-08-08T10:38:05.491Z,48.13
2022-08-08T10:39:07.278Z,48.65
2022-08-08T10:40:07.086Z,48.65
2022-08-08T10:41:05.027Z,48.35
2022-08-08T10:42:16.202Z,47.61
2022-08-08T10:43:04.823Z,48.40
2022-08-08T10:44:04.743Z,48.30
2022-08-08T10:45:07.956Z,48.08
2022-08-08T10:46:04.835Z,46.85
2022-08-08T10:47:04.946Z,47.86
2022-08-08T10:48:04.598Z,47.91
2022-08-08T10:49:04.563Z,49.11
2022-08-08T10:50:04.777Z,49.80
2022-08-08T10:51:04.374Z,49.70
2022-08-08T10:52:04.377Z,49.95
2022-08-08T10:53:04.654Z,49.97
2022-08-08T10:54:04.327Z,49.19
2022-08-08T10:55:06.112Z,49.21
2022-08-08T10:56:04.767Z,49.06
2022-08-08T10:57:04.216Z,47.39
2022-08-08T10:58:05.869Z,47.17
2022-08-08T10:59:04.075Z,47.51
2022-08-08T11:00:04.119Z,47.80
2022-08-08T11:01:07.258Z,47.29
2022-08-08T11:02:03.945Z,47.49
2022-08-08T11:03:03.829Z,47.31
2022-08-08T11:04:04.818Z,47.61
2022-08-08T11:05:05.443Z,47.12
2022-08-08T11:06:03.854Z,47.61
2022-08-08T11:07:05.085Z,47.91
2022-08-08T11:08:38.932Z,47.00
2022-08-08T11:10:03.754Z,48.77
2022-08-08T11:11:08.061Z,48.77
2022-08-08T11:12:13.117Z,48.10
2022-08-08T11:13:31.942Z,47.61
2022-08-08T11:14:03.200Z,47.06
2022-08-08T11:15:03.120Z,46.28
2022-08-08T11:16:07.810Z,46.28
2022-08-08T11:17:03.017Z,46.55
2022-08-08T11:18:02.985Z,46.45
2022-08-08T11:19:02.930Z,46.75
2022-08-08T11:20:10.670Z,47.63
2022-08-08T11:21:09.943Z,47.71
2022-08-08T11:22:04.240Z,48.00
2022-08-08T11:23:05.404Z,47.41
2022-08-08T11:24:03.028Z,47.24
2022-08-08T11:27:10.530Z,46.77
2022-08-08T11:28:04.265Z,47.19
2022-08-08T11:29:02.718Z,46.99
2022-08-08T11:32:02.385Z,47.71
2022-08-08T11:34:34.335Z,48.22
2022-08-08T11:35:24.482Z,47.63
2022-08-08T11:37:14.749Z,46.40
2022-08-08T11:38:38.834Z,46.82
2022-08-08T11:40:02.047Z,47.61
2022-08-08T11:41:01.900Z,46.03
2022-08-08T11:42:01.832Z,50.56
2022-08-08T11:43:01.801Z,54.00
2022-08-08T11:44:01.975Z,54.13
2022-08-08T11:45:01.723Z,53.59
2022-08-08T11:46:13.346Z,50.88
2022-08-08T11:47:01.554Z,51.20
2022-08-08T11:48:02.858Z,52.87
2022-08-08T11:49:04.030Z,55.40
2022-08-08T11:50:01.374Z,54.94
2022-08-08T11:51:01.484Z,55.68
2022-08-08T11:52:03.318Z,55.93
2022-08-08T11:53:06.201Z,54.30
2022-08-08T11:54:02.425Z,55.40
2022-08-08T11:55:01.997Z,54.05
2022-08-08T11:56:01.583Z,53.76
2022-08-08T11:57:01.122Z,53.76
2022-08-08T11:58:04.219Z,53.15
2022-08-08T11:59:58.710Z,53.15
2022-08-08T12:00:06.199Z,52.37
2022-08-08T12:03:45.825Z,54.22
2022-08-08T12:04:43.848Z,53.64
2022-08-08T12:06:39.438Z,54.15
2022-08-08T12:07:36.467Z,53.54
2022-08-08T12:08:36.376Z,53.81
2022-08-08T12:09:40.758Z,54.10
2022-08-08T12:10:36.533Z,53.61
2022-08-08T12:11:36.182Z,54.20
2022-08-08T12:12:36.094Z,53.88
2022-08-08T12:14:02.701Z,54.66
2022-08-08T12:14:36.412Z,55.34
2022-08-08T12:15:42.999Z,54.66
2022-08-08T12:16:46.500Z,54.36
2022-08-08T12:17:36.072Z,54.56
2022-08-08T12:18:35.764Z,54.44
2022-08-08T12:19:50.926Z,54.44
2022-08-08T12:20:35.745Z,55.51
2022-08-08T12:22:00.398Z,55.19
2022-08-08T12:22:40.011Z,55.58
2022-08-08T12:23:43.100Z,57.26
2022-08-08T12:24:35.454Z,57.10
2022-08-08T12:25:44.684Z,57.10
2022-08-08T12:26:36.383Z,56.25
2022-08-08T12:27:43.200Z,55.66
2022-08-08T12:28:35.264Z,56.25
2022-08-08T12:29:41.856Z,55.24
2022-08-08T12:30:35.182Z,54.36
2022-08-08T12:31:38.766Z,53.80
2022-08-08T12:32:35.390Z,54.48
2022-08-08T12:33:37.479Z,55.04
2022-08-08T12:34:36.422Z,57.28
2022-08-08T12:35:34.898Z,59.35
2022-08-08T12:36:34.805Z,56.14
2022-08-08T12:37:40.196Z,56.23
2022-08-08T12:38:34.716Z,58.02
2022-08-08T12:39:37.195Z,57.34
2022-08-08T12:40:34.584Z,57.17
2022-08-08T12:41:56.860Z,54.97
2022-08-08T12:42:34.961Z,55.26
2022-08-08T12:43:43.434Z,55.36
2022-08-08T12:44:34.346Z,55.16
2022-08-08T12:45:59.357Z,56.23
2022-08-08T12:46:34.259Z,56.07
2022-08-08T12:47:58.506Z,55.58
2022-08-08T12:48:37.888Z,55.48
2022-08-08T12:49:43.635Z,55.09
2022-08-08T12:50:34.068Z,56.85
2022-08-08T12:51:39.697Z,57.46
2022-08-08T12:52:33.917Z,57.36
2022-08-08T12:53:36.427Z,55.51
2022-08-08T12:54:36.022Z,55.93
2022-08-08T12:55:56.489Z,54.85
2022-08-08T12:56:33.847Z,54.14
2022-08-08T12:57:49.660Z,55.38
2022-08-08T12:58:33.607Z,56.87
2022-08-08T12:59:44.628Z,55.97
2022-08-08T13:00:33.788Z,55.26
2022-08-08T13:01:34.981Z,55.52
2022-08-08T13:02:33.634Z,55.86
2022-08-08T13:03:33.732Z,58.49
2022-08-08T13:04:33.192Z,58.32
2022-08-08T13:06:05.880Z,56.57
2022-08-08T13:06:33.082Z,57.09
2022-08-08T13:08:03.681Z,55.91